Time;durP1;ratioP1;P1;durP2;ratioP2;P2;SDS_P1;SDS_P2;PMS_P1;PMS_P2;Temp;Humidity;BMP_temperature;BMP_pressure;BME280_temperature;BME280_humidity;BME280_pressure;Samples;Min_cycle;Max_cycle;Signal;HPM_P1;HPM_P2
2022/05/09 00:00:06;;;;;;;11.15;2.78;;;7.00;99.90;;;;;;4972886;28;20526;-77
2022/05/09 00:02:33;;;;;;;12.63;2.78;;;7.00;99.90;;;;;;4974142;28;20388;-80
2022/05/09 00:04:58;;;;;;;18.40;3.95;;;7.00;99.90;;;;;;4956526;28;20054;-77
2022/05/09 00:07:24;;;;;;;13.30;3.08;;;6.90;99.90;;;;;;4972373;28;20055;-79
2022/05/09 00:09:50;;;;;;;18.92;3.80;;;6.90;99.90;;;;;;4988930;28;20154;-78
2022/05/09 00:12:16;;;;;;;17.58;2.97;;;6.90;99.90;;;;;;4974484;28;20062;-81
2022/05/09 00:14:42;;;;;;;12.43;2.67;;;6.80;99.90;;;;;;4973153;28;20042;-81
2022/05/09 00:17:08;;;;;;;11.95;2.80;;;6.80;99.90;;;;;;4958422;28;20054;-82
2022/05/09 00:19:35;;;;;;;13.00;3.10;;;6.80;99.90;;;;;;4972806;28;20050;-82
2022/05/09 00:22:02;;;;;;;16.15;4.43;;;6.80;99.90;;;;;;4972227;28;20365;-81
2022/05/09 00:24:29;;;;;;;10.98;2.42;;;6.80;99.90;;;;;;4973790;28;20050;-79
2022/05/09 00:26:55;;;;;;;26.58;4.68;;;6.70;99.90;;;;;;4973901;28;20513;-80
2022/05/09 00:29:22;;;;;;;12.00;3.35;;;6.70;99.90;;;;;;4972316;28;20059;-76
2022/05/09 00:31:51;;;;;;;16.35;3.88;;;6.70;99.90;;;;;;4973769;28;20318;-77
2022/05/09 00:34:18;;;;;;;14.68;3.67;;;6.70;99.90;;;;;;4972952;28;20510;-79
2022/05/09 00:36:47;;;;;;;10.18;3.13;;;6.70;99.90;;;;;;4973190;28;20387;-77
2022/05/09 00:39:14;;;;;;;15.00;3.00;;;6.60;99.90;;;;;;4958862;28;20051;-78
2022/05/09 00:41:42;;;;;;;11.73;2.65;;;6.50;99.90;;;;;;4972843;28;20059;-77
2022/05/09 00:44:09;;;;;;;11.63;2.67;;;6.50;99.90;;;;;;4972043;28;20597;-80
2022/05/09 00:46:37;;;;;;;13.77;3.10;;;6.50;99.90;;;;;;4988169;28;20046;-80
2022/05/09 00:49:18;;;;;;;14.48;3.55;;;6.50;99.90;;;;;;4973484;28;20078;-81
2022/05/09 00:51:51;;;;;;;11.38;2.92;;;6.50;99.90;;;;;;4971683;28;20054;-82
2022/05/09 00:54:17;;;;;;;10.55;3.00;;;6.40;99.90;;;;;;4972786;28;20518;-80
2022/05/09 00:57:01;;;;;;;8.50;2.78;;;6.40;99.90;;;;;;4971713;28;20560;-76
2022/05/09 00:59:30;;;;;;;10.43;3.50;;;6.40;99.90;;;;;;4972780;28;20074;-81
2022/05/09 01:01:57;;;;;;;20.50;4.38;;;6.40;99.90;;;;;;4971827;28;20067;-78
2022/05/09 01:04:26;;;;;;;10.98;3.13;;;6.30;99.90;;;;;;4975312;28;20061;-78
2022/05/09 01:06:54;;;;;;;18.08;3.03;;;6.30;99.90;;;;;;4973368;28;20065;-75
2022/05/09 01:09:20;;;;;;;14.75;3.35;;;6.30;99.90;;;;;;4972683;28;20047;-78
2022/05/09 01:11:47;;;;;;;13.45;2.78;;;6.20;99.90;;;;;;4972987;28;20050;-78
2022/05/09 01:14:22;;;;;;;10.00;2.50;;;6.20;99.90;;;;;;4988126;28;20051;-78
2022/05/09 01:16:49;;;;;;;12.95;3.25;;;6.20;99.90;;;;;;4972618;28;20058;-79
2022/05/09 01:19:36;;;;;;;12.80;2.95;;;6.20;99.90;;;;;;4971231;28;20078;-79
2022/05/09 01:22:05;;;;;;;10.50;2.92;;;6.10;99.90;;;;;;4975930;28;20055;-81
2022/05/09 01:24:31;;;;;;;10.82;3.25;;;6.10;99.90;;;;;;4972192;28;20494;-81
2022/05/09 01:26:58;;;;;;;13.57;4.25;;;6.10;99.90;;;;;;4971982;28;20058;-80
2022/05/09 01:29:37;;;;;;;11.68;3.08;;;6.10;99.90;;;;;;4955166;28;20146;-77
2022/05/09 01:32:04;;;;;;;12.80;3.65;;;6.10;99.90;;;;;;4972566;28;20049;-79
2022/05/09 01:34:30;;;;;;;16.42;3.58;;;6.00;99.90;;;;;;4971201;28;20054;-81
2022/05/09 01:37:03;;;;;;;16.52;3.80;;;6.00;99.90;;;;;;4971039;28;20469;-77
2022/05/09 01:39:30;;;;;;;18.63;3.60;;;6.00;99.90;;;;;;4972428;28;20522;-76
2022/05/09 01:41:57;;;;;;;9.25;3.85;;;6.00;99.90;;;;;;4972480;28;20105;-82
2022/05/09 01:44:23;;;;;;;16.75;3.20;;;5.90;99.90;;;;;;4975909;28;20051;-82
2022/05/09 01:49:35;;;;;;;14.23;3.53;;;5.90;99.90;;;;;;4972508;28;20047;-80
2022/05/09 01:52:08;;;;;;;11.73;2.72;;;5.80;99.90;;;;;;4987256;28;20061;-80
2022/05/09 01:54:34;;;;;;;12.02;2.53;;;5.80;99.90;;;;;;4971277;28;20043;-80
2022/05/09 01:57:00;;;;;;;15.73;3.15;;;5.80;99.90;;;;;;4970552;28;20058;-80
2022/05/09 01:59:27;;;;;;;12.75;3.45;;;5.80;99.90;;;;;;4971165;28;20113;-81
2022/05/09 02:01:56;;;;;;;16.48;3.17;;;5.80;99.90;;;;;;4973542;28;20094;-81
2022/05/09 02:04:23;;;;;;;8.75;2.53;;;5.80;99.90;;;;;;4971801;28;20057;-78
2022/05/09 02:06:50;;;;;;;12.95;3.55;;;5.80;99.90;;;;;;4972230;28;20050;-77
2022/05/09 02:09:16;;;;;;;11.70;2.97;;;5.80;99.90;;;;;;4970798;28;20051;-77
2022/05/09 02:11:42;;;;;;;11.88;3.65;;;5.80;99.90;;;;;;4972498;28;20384;-77
2022/05/09 02:14:08;;;;;;;10.20;3.25;;;5.90;99.90;;;;;;4987392;28;20074;-81
2022/05/09 02:16:35;;;;;;;12.35;4.18;;;5.90;99.90;;;;;;4973451;28;20395;-81
2022/05/09 02:19:01;;;;;;;12.35;3.13;;;5.80;99.90;;;;;;4972451;28;20054;-80
2022/05/09 02:21:27;;;;;;;13.05;3.75;;;5.80;99.90;;;;;;4972499;28;20062;-75
2022/05/09 02:23:53;;;;;;;11.05;2.90;;;5.80;99.90;;;;;;4971563;28;20046;-76
2022/05/09 02:26:19;;;;;;;11.13;3.10;;;5.80;99.90;;;;;;4971972;28;20161;-77
2022/05/09 02:28:45;;;;;;;11.73;3.50;;;5.80;99.90;;;;;;4987424;28;20120;-80
2022/05/09 02:31:10;;;;;;;14.80;3.70;;;5.80;99.90;;;;;;4970572;28;20047;-81
2022/05/09 02:33:36;;;;;;;15.13;4.38;;;5.70;99.90;;;;;;4972133;28;20082;-82
2022/05/09 02:36:02;;;;;;;9.82;3.25;;;5.70;99.90;;;;;;4972119;28;20051;-77
2022/05/09 02:38:29;;;;;;;15.85;3.17;;;5.70;99.90;;;;;;4971037;28;20549;-80
2022/05/09 02:40:56;;;;;;;16.90;3.28;;;5.70;99.90;;;;;;4986885;28;20597;-81
2022/05/09 02:43:22;;;;;;;16.33;3.33;;;5.70;99.90;;;;;;4972020;28;20051;-82
2022/05/09 02:45:48;;;;;;;14.60;3.45;;;5.60;99.90;;;;;;4972284;28;20109;-78
2022/05/09 02:48:15;;;;;;;12.70;3.15;;;5.60;99.90;;;;;;4970736;28;20414;-76
2022/05/09 02:50:41;;;;;;;14.77;3.03;;;5.60;99.90;;;;;;4970820;28;20089;-82
2022/05/09 02:53:10;;;;;;;24.20;5.15;;;5.60;99.90;;;;;;4972622;28;20086;-82
2022/05/09 02:55:36;;;;;;;18.88;4.45;;;5.60;99.90;;;;;;4971970;28;20090;-81
2022/05/09 02:58:03;;;;;;;16.17;5.10;;;5.60;99.90;;;;;;4989419;28;20055;-77
2022/05/09 03:00:30;;;;;;;9.38;3.03;;;5.60;99.90;;;;;;4973826;28;20086;-75
2022/05/09 03:05:41;;;;;;;;;;;5.50;99.90;;;;;;4977321;28;20050;-82
2022/05/09 03:08:09;;;;;;;17.17;4.75;;;5.50;99.90;;;;;;4976259;28;19992;-77
2022/05/09 03:10:36;;;;;;;15.88;4.05;;;5.50;99.90;;;;;;4974266;28;20047;-81
2022/05/09 03:13:04;;;;;;;16.30;3.95;;;5.50;99.90;;;;;;4975538;28;20479;-79
2022/05/09 03:15:35;;;;;;;14.32;3.70;;;5.40;99.90;;;;;;4974852;28;20062;-74
2022/05/09 03:18:02;;;;;;;17.58;4.20;;;5.40;99.90;;;;;;4975381;28;20574;-78
2022/05/09 03:20:28;;;;;;;15.57;4.68;;;5.40;99.90;;;;;;4989845;28;20051;-81
2022/05/09 03:22:55;;;;;;;10.48;3.17;;;5.30;99.90;;;;;;4975653;28;20081;-76
2022/05/09 03:25:21;;;;;;;12.35;3.25;;;5.30;99.90;;;;;;4977632;28;20059;-78
2022/05/09 03:27:47;;;;;;;14.68;3.78;;;5.30;99.90;;;;;;4977114;28;20061;-82
2022/05/09 03:30:15;;;;;;;7.13;1.70;;;5.30;99.90;;;;;;4976421;28;20043;-81
2022/05/09 03:32:41;;;;;;;8.60;2.22;;;5.20;99.90;;;;;;4977490;28;20050;-82
2022/05/09 03:35:09;;;;;;;9.00;2.22;;;5.10;99.90;;;;;;4976556;28;20043;-81
2022/05/09 03:37:35;;;;;;;8.05;2.13;;;5.10;99.90;;;;;;4975956;28;20137;-83
2022/05/09 03:40:02;;;;;;;14.18;3.65;;;5.00;99.90;;;;;;4974734;28;20418;-82
2022/05/09 03:42:28;;;;;;;14.13;3.15;;;5.00;99.90;;;;;;4974788;28;20047;-81
2022/05/09 03:44:54;;;;;;;9.70;2.67;;;5.00;99.90;;;;;;4975093;28;20491;-78
2022/05/09 03:47:20;;;;;;;14.35;3.20;;;4.90;99.90;;;;;;4976074;28;20511;-82
2022/05/09 03:49:46;;;;;;;10.25;3.00;;;4.90;99.90;;;;;;4974492;28;20046;-80
2022/05/09 03:52:12;;;;;;;14.02;3.65;;;4.90;99.90;;;;;;4973354;28;20181;-81
2022/05/09 03:54:38;;;;;;;17.77;3.97;;;4.90;99.90;;;;;;4974409;28;20145;-81
2022/05/09 03:57:04;;;;;;;23.35;4.95;;;4.90;99.90;;;;;;4974627;28;20046;-77
2022/05/09 03:59:30;;;;;;;11.38;3.30;;;4.90;99.90;;;;;;4989640;28;20047;-75
2022/05/09 04:01:58;;;;;;;12.30;3.53;;;4.90;99.90;;;;;;4973445;28;20867;-78
2022/05/09 04:04:24;;;;;;;15.43;3.70;;;4.90;99.90;;;;;;4976578;28;20047;-81
2022/05/09 04:06:51;;;;;;;14.65;3.42;;;4.90;99.90;;;;;;4974060;28;20823;-78
2022/05/09 04:09:18;;;;;;;10.18;4.00;;;4.90;99.90;;;;;;4971890;28;20206;-80
2022/05/09 04:11:45;;;;;;;18.33;3.67;;;5.00;99.90;;;;;;4975343;28;20430;-82
2022/05/09 04:14:11;;;;;;;13.82;3.38;;;4.90;99.90;;;;;;4974767;28;20242;-78
2022/05/09 04:16:52;;;;;;;13.20;3.92;;;4.90;99.90;;;;;;4974348;28;20114;-80
2022/05/09 04:19:21;;;;;;;14.00;3.75;;;4.90;99.90;;;;;;4972529;28;20518;-76
2022/05/09 04:21:47;;;;;;;12.98;3.30;;;5.00;99.90;;;;;;4973985;28;20133;-75
2022/05/09 04:24:13;;;;;;;13.80;3.65;;;5.00;99.90;;;;;;4972712;28;20051;-80
2022/05/09 04:26:40;;;;;;;16.13;4.00;;;5.10;99.90;;;;;;4972961;28;20391;-75
2022/05/09 04:29:06;;;;;;;17.83;3.95;;;5.10;99.90;;;;;;4941239;28;20510;-80
2022/05/09 04:31:33;;;;;;;15.50;5.18;;;5.20;99.90;;;;;;4940534;28;20062;-79
2022/05/09 04:34:00;;;;;;;22.48;4.53;;;5.20;99.90;;;;;;4972271;28;20062;-79
2022/05/09 04:36:27;;;;;;;16.30;5.00;;;5.30;99.90;;;;;;4957469;28;20065;-77
2022/05/09 04:38:53;;;;;;;15.27;4.93;;;5.30;99.90;;;;;;4957184;28;20110;-82
2022/05/09 04:41:20;;;;;;;16.73;4.90;;;5.40;99.90;;;;;;4973130;28;20090;-80
2022/05/09 04:43:47;;;;;;;13.98;5.38;;;5.40;99.90;;;;;;4974190;28;20051;-81
2022/05/09 04:46:13;;;;;;;27.98;5.45;;;5.50;99.90;;;;;;4973632;28;20053;-81
2022/05/09 04:48:41;;;;;;;19.83;6.07;;;5.60;99.90;;;;;;4973436;28;20054;-80
2022/05/09 04:51:08;;;;;;;25.70;7.15;;;5.80;99.90;;;;;;4973549;28;20109;-79
2022/05/09 04:53:34;;;;;;;18.98;6.07;;;6.00;99.90;;;;;;4971748;28;20050;-82
2022/05/09 04:56:01;;;;;;;39.25;8.50;;;6.20;99.90;;;;;;4972796;28;20491;-82
2022/05/09 04:58:28;;;;;;;23.90;6.63;;;6.30;99.90;;;;;;4972431;28;20080;-76
2022/05/09 05:00:54;;;;;;;19.02;7.20;;;6.50;99.90;;;;;;4974604;28;20062;-77
2022/05/09 05:03:20;;;;;;;25.10;7.18;;;6.70;99.90;;;;;;4974518;28;20065;-77
2022/05/09 05:05:46;;;;;;;21.63;6.75;;;6.90;99.90;;;;;;4972760;28;20050;-79
2022/05/09 05:08:14;;;;;;;23.13;6.55;;;7.00;99.90;;;;;;4987719;28;20505;-80
2022/05/09 05:10:41;;;;;;;29.42;6.80;;;7.10;99.90;;;;;;4972772;28;20047;-82
2022/05/09 05:13:08;;;;;;;20.48;6.40;;;7.30;99.90;;;;;;4973014;28;20057;-80
2022/05/09 05:15:34;;;;;;;22.90;6.28;;;7.40;99.90;;;;;;4974282;28;20086;-78
2022/05/09 05:18:00;;;;;;;15.60;6.05;;;7.60;99.90;;;;;;4958461;28;20093;-81
2022/05/09 05:20:26;;;;;;;17.13;6.20;;;7.70;99.90;;;;;;4974332;28;20066;-82
2022/05/09 05:22:53;;;;;;;25.13;6.60;;;7.80;99.90;;;;;;4972664;28;20051;-78
2022/05/09 05:25:29;;;;;;;20.30;5.15;;;8.00;99.90;;;;;;4977469;28;20054;-80
2022/05/09 05:27:56;;;;;;;22.15;6.47;;;8.10;99.90;;;;;;4974387;28;20104;-77
2022/05/09 05:30:23;;;;;;;26.70;7.00;;;8.30;99.90;;;;;;4975069;28;20043;-77
2022/05/09 05:32:49;;;;;;;16.95;5.95;;;8.40;99.90;;;;;;4973162;28;20055;-77
2022/05/09 05:35:20;;;;;;;23.75;6.50;;;8.50;99.90;;;;;;4973060;28;20061;-78
2022/05/09 05:37:46;;;;;;;20.42;6.60;;;8.60;99.90;;;;;;4972939;28;20142;-77
2022/05/09 05:40:13;;;;;;;26.65;6.60;;;8.70;99.90;;;;;;4972118;28;20519;-80
2022/05/09 05:42:41;;;;;;;18.92;6.50;;;8.80;99.90;;;;;;4987075;28;20066;-79
2022/05/09 05:45:09;;;;;;;17.50;7.35;;;8.80;99.90;;;;;;4955568;28;20137;-82
2022/05/09 05:47:35;;;;;;;19.20;6.80;;;8.90;99.90;;;;;;4970722;28;20070;-81
2022/05/09 05:50:06;;;;;;;21.83;7.35;;;9.10;99.90;;;;;;4954633;28;20518;-76
2022/05/09 05:52:32;;;;;;;26.58;8.77;;;9.20;99.90;;;;;;4972126;28;20113;-79
2022/05/09 05:54:58;;;;;;;25.27;7.43;;;9.40;99.90;;;;;;4970872;28;20063;-78
2022/05/09 05:57:30;;;;;;;25.27;7.22;;;9.50;99.90;;;;;;4971917;28;20407;-76
2022/05/09 06:00:02;;;;;;;17.08;7.10;;;9.60;99.90;;;;;;4974410;28;20776;-82
2022/05/09 06:02:28;;;;;;;23.65;6.90;;;9.70;99.90;;;;;;4971165;28;20051;-76
2022/05/09 06:04:54;;;;;;;24.05;7.68;;;9.80;99.90;;;;;;4970850;28;20121;-79
2022/05/09 06:07:22;;;;;;;23.73;8.75;;;9.80;99.90;;;;;;4970906;28;20118;-78
2022/05/09 06:09:49;;;;;;;21.02;6.07;;;9.90;99.90;;;;;;4970799;28;20113;-79
2022/05/09 06:12:19;;;;;;;17.52;6.35;;;10.00;99.90;;;;;;4970799;28;20058;-75
2022/05/09 06:15:24;;;;;;;22.15;7.28;;;10.10;99.90;;;;;;4971794;28;20126;-77
2022/05/09 06:17:32;;;;;;;19.25;6.57;;;10.30;99.90;;;;;;4972783;28;20685;-77
2022/05/09 06:19:58;;;;;;;22.15;6.18;;;10.50;99.90;;;;;;4971085;28;20058;-80
2022/05/09 06:22:24;;;;;;;21.77;6.63;;;10.70;99.90;;;;;;4970926;28;20097;-80
2022/05/09 06:24:57;;;;;;;20.75;6.70;;;10.90;99.90;;;;;;4970754;28;20133;-81
2022/05/09 06:27:22;;;;;;;18.60;7.22;;;11.00;99.90;;;;;;4971839;28;20178;-77
2022/05/09 06:29:48;;;;;;;23.98;5.80;;;11.20;99.90;;;;;;4971798;28;20067;-78
2022/05/09 06:32:16;;;;;;;14.00;5.43;;;11.30;99.90;;;;;;4975939;28;20516;-82
2022/05/09 06:34:43;;;;;;;20.38;5.75;;;11.50;99.90;;;;;;4976792;28;20051;-82
2022/05/09 06:37:09;;;;;;;14.20;5.97;;;11.60;99.90;;;;;;4975547;28;20051;-80
2022/05/09 06:39:35;;;;;;;19.73;6.03;;;11.70;99.90;;;;;;4975506;28;20050;-81
2022/05/09 06:42:04;;;;;;;24.17;6.10;;;11.90;99.90;;;;;;4973613;28;20062;-82
2022/05/09 06:44:30;;;;;;;22.35;6.00;;;12.00;99.90;;;;;;4976175;28;20546;-76
2022/05/09 06:46:56;;;;;;;17.05;5.32;;;12.10;99.90;;;;;;4975586;28;20079;-82
2022/05/09 06:49:22;;;;;;;14.68;4.88;;;12.20;99.90;;;;;;4975131;28;20070;-82
2022/05/09 06:51:51;;;;;;;17.40;5.65;;;12.40;99.90;;;;;;4978392;28;20055;-82
2022/05/09 06:54:20;;;;;;;15.85;5.38;;;12.50;99.90;;;;;;4974195;28;20054;-84
2022/05/09 06:56:46;;;;;;;13.77;5.68;;;12.60;99.90;;;;;;4974000;28;20807;-80
2022/05/09 06:59:12;;;;;;;23.85;6.95;;;12.70;99.90;;;;;;4976519;28;20058;-79
2022/05/09 07:01:37;;;;;;;15.75;4.50;;;12.90;99.90;;;;;;4975534;28;20453;-82
2022/05/09 07:04:04;;;;;;;17.80;4.95;;;13.10;99.90;;;;;;4976519;28;20046;-81
2022/05/09 07:06:30;;;;;;;17.73;6.40;;;13.40;99.90;;;;;;4976480;28;20503;-79
2022/05/09 07:08:55;;;;;;;16.02;5.20;;;13.50;99.90;;;;;;4975177;28;20058;-82
2022/05/09 07:11:22;;;;;;;15.70;5.13;;;13.70;99.90;;;;;;4975614;28;20061;-83
2022/05/09 07:13:48;;;;;;;18.48;5.60;;;13.90;99.90;;;;;;4976526;28;20047;-82
2022/05/09 07:16:15;;;;;;;19.67;5.85;;;14.10;99.90;;;;;;4974209;28;20186;-84
2022/05/09 07:18:42;;;;;;;14.90;4.35;;;14.20;99.90;;;;;;4974119;28;20058;-82
2022/05/09 07:21:08;;;;;;;16.25;5.68;;;14.50;99.90;;;;;;4976455;28;20058;-81
2022/05/09 07:23:34;;;;;;;14.23;4.43;;;14.70;99.90;;;;;;4979343;28;20050;-84
2022/05/09 07:26:02;;;;;;;18.00;4.88;;;14.70;99.90;;;;;;4976018;28;20062;-83
2022/05/09 07:28:29;;;;;;;12.40;4.45;;;14.80;99.90;;;;;;4977378;28;20055;-84
2022/05/09 07:30:56;;;;;;;17.58;4.90;;;14.90;99.90;;;;;;4975131;28;20058;-82
2022/05/09 07:33:22;;;;;;;13.35;4.50;;;15.10;99.90;;;;;;4974859;28;20054;-81
2022/05/09 07:35:49;;;;;;;17.00;3.90;;;15.30;99.90;;;;;;4974102;28;20577;-81
2022/05/09 07:38:15;;;;;;;16.23;4.55;;;15.60;99.90;;;;;;4976071;28;20527;-79
2022/05/09 07:40:43;;;;;;;13.00;4.82;;;15.80;99.90;;;;;;4974506;28;20074;-83
2022/05/09 07:43:14;;;;;;;14.38;4.07;;;15.90;99.90;;;;;;4974069;28;20521;-83
2022/05/09 07:45:42;;;;;;;18.98;5.53;;;16.00;99.90;;;;;;4975162;28;20057;-81
2022/05/09 07:48:09;;;;;;;18.02;3.95;;;16.10;99.90;;;;;;4974054;28;20058;-83
2022/05/09 07:50:36;;;;;;;21.25;4.78;;;16.30;99.90;;;;;;4974356;28;20082;-79
2022/05/09 07:53:24;;;;;;;15.32;4.72;;;16.40;99.90;;;;;;4975126;28;20058;-82
2022/05/09 07:55:50;;;;;;;12.60;4.43;;;16.30;98.80;;;;;;4956745;28;20082;-81
2022/05/09 07:58:16;;;;;;;16.75;4.25;;;16.60;99.90;;;;;;4973920;28;20147;-81
2022/05/09 08:00:43;;;;;;;15.00;5.47;;;16.70;99.90;;;;;;4989086;28;20138;-83
2022/05/09 08:03:19;;;;;;;17.08;4.38;;;16.90;99.40;;;;;;4974873;28;20055;-81
2022/05/09 08:05:46;;;;;;;12.13;3.60;;;17.30;99.60;;;;;;4974516;28;20051;-85
2022/05/09 08:08:12;;;;;;;13.55;4.22;;;17.40;98.80;;;;;;4977729;28;20074;-82
2022/05/09 08:10:39;;;;;;;13.00;3.88;;;17.40;98.50;;;;;;4973884;28;20514;-82
2022/05/09 08:13:07;;;;;;;14.43;4.20;;;17.40;98.60;;;;;;4974183;28;20058;-80
2022/05/09 08:15:34;;;;;;;13.57;4.72;;;17.40;98.20;;;;;;4956801;28;20499;-85
2022/05/09 08:18:01;;;;;;;15.75;3.92;;;17.10;98.00;;;;;;4976158;28;20062;-83
2022/05/09 08:20:30;;;;;;;17.60;5.07;;;17.20;98.20;;;;;;4974890;28;20446;-81
2022/05/09 08:23:06;;;;;;;17.55;4.85;;;17.20;97.90;;;;;;4975123;28;20046;-83
2022/05/09 08:25:34;;;;;;;16.23;4.43;;;17.40;96.40;;;;;;4974321;28;20061;-83
2022/05/09 08:28:04;;;;;;;14.80;4.47;;;17.30;96.80;;;;;;4973862;28;20043;-82
2022/05/09 08:30:32;;;;;;;14.98;3.88;;;17.50;96.40;;;;;;4973917;28;20141;-81
2022/05/09 08:33:07;;;;;;;12.13;4.90;;;17.80;96.50;;;;;;4974871;28;20060;-83
2022/05/09 08:35:33;;;;;;;15.23;4.13;;;18.00;96.20;;;;;;4973776;28;20050;-81
2022/05/09 08:37:59;;;;;;;15.68;4.20;;;18.10;95.80;;;;;;4972713;28;20069;-81
2022/05/09 08:40:37;;;;;;;16.50;5.05;;;18.30;95.00;;;;;;4973252;28;20113;-81
2022/05/09 08:43:05;;;;;;;14.48;4.22;;;18.40;94.60;;;;;;4973198;28;20090;-82
2022/05/09 08:45:45;;;;;;;14.45;3.42;;;18.50;94.00;;;;;;4972389;28;20067;-83
2022/05/09 08:48:43;;;;;;;13.93;4.65;;;18.60;93.30;;;;;;4976740;28;20139;-81
2022/05/09 08:51:33;;;;;;;11.45;3.63;;;18.70;93.40;;;;;;4974075;28;20051;-81
2022/05/09 08:54:06;;;;;;;14.23;3.90;;;19.00;92.60;;;;;;4988550;28;20050;-80
2022/05/09 08:56:33;;;;;;;14.77;3.80;;;19.30;93.40;;;;;;4971607;28;20142;-81
2022/05/09 08:59:03;;;;;;;16.38;3.45;;;19.50;93.40;;;;;;4972071;28;20279;-81
2022/05/09 09:01:51;;;;;;;11.90;3.70;;;19.50;92.60;;;;;;4972238;28;20086;-81
2022/05/09 09:04:24;;;;;;;11.77;3.65;;;19.90;93.00;;;;;;4975686;28;20054;-80
2022/05/09 09:07:05;;;;;;;12.43;3.60;;;19.80;93.60;;;;;;4974640;28;20058;-82
2022/05/09 09:09:55;;;;;;;11.45;3.85;;;19.90;93.50;;;;;;4973908;28;20035;-83
2022/05/09 09:12:47;;;;;;;13.65;4.40;;;20.00;93.30;;;;;;4971535;28;20129;-83
2022/05/09 09:15:25;;;;;;;19.55;4.88;;;20.20;92.30;;;;;;4970524;28;20066;-84
2022/05/09 09:18:04;;;;;;;17.33;4.00;;;20.50;92.80;;;;;;4972967;28;20054;-84
2022/05/09 09:20:45;;;;;;;14.52;4.07;;;20.60;91.80;;;;;;4973604;28;20094;-83
2022/05/09 09:23:33;;;;;;;11.93;4.15;;;20.90;91.50;;;;;;4977456;28;20054;-84
2022/05/09 09:26:02;;;;;;;15.25;3.67;;;21.30;89.20;;;;;;4975152;28;20061;-83
2022/05/09 09:28:35;;;;;;;15.95;4.45;;;21.50;90.20;;;;;;4972029;28;20054;-84
2022/05/09 09:31:09;;;;;;;18.15;4.63;;;21.70;88.70;;;;;;4956375;28;20105;-84
2022/05/09 09:33:38;;;;;;;11.10;3.47;;;21.50;89.60;;;;;;4987979;28;20046;-84
2022/05/09 09:36:13;;;;;;;9.90;4.00;;;21.60;88.90;;;;;;4972529;28;20101;-84
2022/05/09 09:39:07;;;;;;;11.48;4.40;;;21.90;87.50;;;;;;4972157;28;20061;-83
2022/05/09 09:41:35;;;;;;;10.63;3.03;;;22.10;85.50;;;;;;4973331;28;20062;-82
2022/05/09 09:44:08;;;;;;;14.52;4.15;;;22.10;84.90;;;;;;4972922;28;20056;-82
2022/05/09 09:47:06;;;;;;;12.82;3.47;;;22.20;81.30;;;;;;4970808;28;20035;-82
2022/05/09 09:53:34;;;;;;;15.43;4.13;;;22.80;81.10;;;;;;4971924;28;20046;-84
2022/05/09 09:56:07;;;;;;;13.93;3.70;;;23.00;79.00;;;;;;4971220;28;20494;-84
2022/05/09 09:58:34;;;;;;;16.73;4.80;;;22.90;78.80;;;;;;4973317;28;20050;-81
2022/05/09 10:01:10;;;;;;;13.45;4.18;;;23.00;76.80;;;;;;4979437;28;20182;-82
2022/05/09 10:03:39;;;;;;;16.15;3.63;;;22.90;77.80;;;;;;4973332;28;20146;-82
2022/05/09 10:06:20;;;;;;;14.00;4.10;;;23.10;77.80;;;;;;4972229;28;20058;-83
2022/05/09 10:09:08;;;;;;;13.93;4.50;;;23.40;74.30;;;;;;4974631;28;20094;-82
2022/05/09 10:11:34;;;;;;;8.70;3.60;;;23.50;69.40;;;;;;4976006;28;20059;-85
2022/05/09 10:14:03;;;;;;;15.68;4.50;;;23.70;70.90;;;;;;4974562;28;20047;-82
2022/05/09 10:16:48;;;;;;;15.38;3.70;;;23.70;67.20;;;;;;4976393;28;20101;-84
2022/05/09 10:19:29;;;;;;;15.68;4.25;;;24.00;64.40;;;;;;4978179;28;20402;-84
2022/05/09 10:25:20;;;;;;;13.00;4.15;;;24.00;59.30;;;;;;4943181;28;20535;-85
2022/05/09 10:28:00;;;;;;;11.82;3.25;;;23.90;57.50;;;;;;4979650;28;20054;-85
2022/05/09 10:30:35;;;;;;;11.40;2.78;;;24.00;59.50;;;;;;4976020;28;20050;-84
2022/05/09 10:33:25;;;;;;;11.35;3.55;;;24.20;57.40;;;;;;4976986;28;20047;-82
2022/05/09 10:35:55;;;;;;;16.90;3.10;;;24.50;55.00;;;;;;4990798;28;20051;-82
2022/05/09 10:38:40;;;;;;;10.02;3.40;;;24.60;52.50;;;;;;4976018;28;20101;-85
2022/05/09 10:41:31;;;;;;;10.88;3.25;;;24.70;52.40;;;;;;4975215;28;20046;-82
2022/05/09 10:44:04;;;;;;;10.50;3.20;;;25.00;52.20;;;;;;4975791;28;20057;-83
2022/05/09 10:46:54;;;;;;;11.02;3.03;;;24.80;51.30;;;;;;4975373;28;20051;-85
2022/05/09 10:49:29;;;;;;;11.05;3.25;;;25.10;52.50;;;;;;4975115;28;20526;-82
2022/05/09 10:52:16;;;;;;;15.15;4.40;;;25.30;53.10;;;;;;4975014;28;20054;-82
2022/05/09 10:54:48;;;;;;;14.57;3.55;;;25.50;52.30;;;;;;4974340;28;20422;-83
2022/05/09 10:57:30;;;;;;;11.07;3.20;;;25.60;51.90;;;;;;4973890;28;20113;-85
2022/05/09 11:00:19;;;;;;;11.55;2.90;;;25.70;51.40;;;;;;4975049;28;20057;-85
2022/05/09 11:03:08;;;;;;;13.40;3.67;;;26.10;52.70;;;;;;4977507;28;20145;-84
2022/05/09 11:06:21;;;;;;;15.43;4.45;;;26.10;51.20;;;;;;4974105;28;20130;-85
2022/05/09 11:08:56;;;;;;;13.25;4.15;;;26.00;51.30;;;;;;4941349;28;20075;-85
2022/05/09 11:11:52;;;;;;;13.20;4.00;;;26.00;52.30;;;;;;4958312;28;20054;-85
2022/05/09 11:14:49;;;;;;;10.63;3.90;;;25.60;51.10;;;;;;4974036;28;20059;-85
2022/05/09 11:17:50;;;;;;;14.88;4.00;;;25.70;50.80;;;;;;4974230;28;20117;-84
2022/05/09 11:20:25;;;;;;;14.38;3.97;;;25.60;53.90;;;;;;4957681;28;20109;-85
2022/05/09 11:23:07;;;;;;;13.00;3.90;;;25.90;53.80;;;;;;4991323;28;20046;-85
2022/05/09 11:25:56;;;;;;;12.75;4.47;;;25.90;53.00;;;;;;4973492;28;20055;-82
2022/05/09 11:28:43;;;;;;;12.27;4.97;;;25.70;51.50;;;;;;4974930;28;20051;-85
2022/05/09 11:31:36;;;;;;;11.95;3.85;;;25.60;52.50;;;;;;4974851;28;20085;-83
2022/05/09 11:34:05;;;;;;;17.70;4.30;;;25.40;54.30;;;;;;4977133;28;20578;-83
2022/05/09 11:36:59;;;;;;;11.43;4.18;;;25.20;54.70;;;;;;4974830;28;20046;-84
2022/05/09 11:39:39;;;;;;;17.00;3.95;;;25.00;55.50;;;;;;4976910;28;20109;-85
2022/05/09 11:45:48;;;;;;;12.88;3.67;;;25.50;56.40;;;;;;4974843;28;20047;-84
2022/05/09 11:48:32;;;;;;;;;;;25.80;56.00;;;;;;4973431;28;20058;-84
2022/05/09 11:51:13;;;;;;;11.13;3.38;;;25.90;53.30;;;;;;4973218;28;19930;-82
2022/05/09 11:53:43;;;;;;;13.38;4.30;;;25.90;54.20;;;;;;4973940;28;20054;-82
2022/05/09 11:56:09;;;;;;;17.33;3.95;;;25.90;55.20;;;;;;4975301;28;20058;-82
2022/05/09 11:58:38;;;;;;;13.55;3.45;;;25.90;54.80;;;;;;4972816;28;20062;-83
2022/05/09 12:01:04;;;;;;;14.18;3.58;;;26.10;54.70;;;;;;4974305;28;20061;-83
2022/05/09 12:03:42;;;;;;;11.32;2.83;;;26.20;53.40;;;;;;4972509;28;20407;-82
2022/05/09 12:06:36;;;;;;;12.43;3.28;;;26.90;48.70;;;;;;4974178;28;20051;-84
2022/05/09 12:09:09;;;;;;;18.85;4.38;;;26.80;47.00;;;;;;4972967;28;20090;-83
2022/05/09 12:11:49;;;;;;;9.27;3.05;;;26.80;47.50;;;;;;4974829;28;20078;-80
2022/05/09 12:14:50;;;;;;;15.88;3.72;;;27.00;48.70;;;;;;4977452;28;20118;-82
2022/05/09 12:17:20;;;;;;;10.88;3.47;;;27.50;50.70;;;;;;4951789;28;20134;-83
2022/05/09 12:19:46;;;;;;;12.50;3.65;;;27.60;48.90;;;;;;4973636;28;20042;-82
2022/05/09 12:22:39;;;;;;;14.30;5.32;;;27.40;49.80;;;;;;4957881;28;20417;-83
2022/05/09 12:25:36;;;;;;;10.00;3.47;;;27.20;50.50;;;;;;4974409;28;20057;-82
2022/05/09 12:28:18;;;;;;;10.10;2.83;;;27.40;50.60;;;;;;4955373;28;20054;-83
2022/05/09 12:31:04;;;;;;;10.80;3.25;;;27.90;50.80;;;;;;4972513;28;20057;-82
2022/05/09 12:33:52;;;;;;;13.80;4.07;;;27.80;50.10;;;;;;4975153;28;20062;-82
2022/05/09 12:36:29;;;;;;;16.95;3.97;;;27.70;49.00;;;;;;4973722;28;20065;-84
2022/05/09 12:39:25;;;;;;;11.85;3.63;;;27.90;49.80;;;;;;4974365;28;20057;-84
2022/05/09 12:41:59;;;;;;;13.80;4.57;;;28.20;49.30;;;;;;4976639;28;20054;-84
2022/05/09 12:44:44;;;;;;;9.85;3.28;;;28.30;46.10;;;;;;4972119;28;20059;-83
2022/05/09 12:47:22;;;;;;;11.10;2.72;;;28.20;44.70;;;;;;4971845;28;20054;-84
2022/05/09 12:49:59;;;;;;;9.95;3.17;;;28.40;43.70;;;;;;4972118;28;20055;-84
2022/05/09 12:52:29;;;;;;;11.82;2.95;;;28.70;43.50;;;;;;4971996;28;20046;-82
2022/05/09 12:57:42;;;;;;;10.77;2.80;;;29.00;41.60;;;;;;4973420;28;20054;-83
2022/05/09 13:00:21;;;;;;;10.57;3.13;;;29.60;41.60;;;;;;4975009;28;20392;-83
2022/05/09 13:02:47;;;;;;;14.43;2.95;;;29.80;39.70;;;;;;4977306;28;20058;-84
2022/05/09 13:05:15;;;;;;;12.20;3.30;;;29.70;39.70;;;;;;4973602;28;20109;-82
2022/05/09 13:07:55;;;;;;;14.32;3.28;;;29.60;38.70;;;;;;4973044;28;20057;-86
2022/05/09 13:10:21;;;;;;;8.85;2.63;;;29.90;39.70;;;;;;4973588;28;20057;-81
2022/05/09 13:12:47;;;;;;;9.55;2.08;;;29.90;39.50;;;;;;4972947;28;20121;-82
2022/05/09 13:15:35;;;;;;;9.48;2.67;;;30.00;38.10;;;;;;4974059;28;20086;-85
2022/05/09 13:18:25;;;;;;;8.15;2.65;;;30.10;35.70;;;;;;4971592;28;20062;-84
2022/05/09 13:20:54;;;;;;;9.10;3.22;;;30.50;36.70;;;;;;4972688;28;20142;-85
2022/05/09 13:23:39;;;;;;;11.77;3.60;;;30.50;35.60;;;;;;4973080;28;20093;-86